sensor_id;sensor_type;location;lat;lon;timestamp;P1;durP1;ratioP1;P2;durP2;ratioP2
9906;SDS011;4992;51.628;6.664;2022-10-31T00:00:51;16.77;;;9.60;;
9906;SDS011;4992;51.628;6.664;2022-10-31T00:03:17;13.27;;;9.25;;
9906;SDS011;4992;51.628;6.664;2022-10-31T00:05:43;16.13;;;9.18;;
9906;SDS011;4992;51.628;6.664;2022-10-31T00:08:10;13.90;;;8.82;;
9906;SDS011;4992;51.628;6.664;2022-10-31T00:10:39;14.95;;;9.68;;
9906;SDS011;4992;51.628;6.664;2022-10-31T00:13:06;17.95;;;9.38;;
9906;SDS011;4992;51.628;6.664;2022-10-31T00:15:33;15.48;;;10.30;;
9906;SDS011;4992;51.628;6.664;2022-10-31T00:17:59;14.23;;;9.32;;
9906;SDS011;4992;51.628;6.664;2022-10-31T00:20:25;14.00;;;9.77;;
9906;SDS011;4992;51.628;6.664;2022-10-31T00:22:50;13.23;;;9.20;;
9906;SDS011;4992;51.628;6.664;2022-10-31T00:25:16;16.48;;;8.52;;
9906;SDS011;4992;51.628;6.664;2022-10-31T00:27:41;11.65;;;8.85;;
9906;SDS011;4992;51.628;6.664;2022-10-31T00:30:07;12.00;;;9.05;;
9906;SDS011;4992;51.628;6.664;2022-10-31T00:32:33;14.68;;;9.57;;
9906;SDS011;4992;51.628;6.664;2022-10-31T00:34:58;17.35;;;10.30;;
9906;SDS011;4992;51.628;6.664;2022-10-31T00:37:24;19.05;;;10.82;;
9906;SDS011;4992;51.628;6.664;2022-10-31T00:39:49;18.90;;;10.85;;
9906;SDS011;4992;51.628;6.664;2022-10-31T00:42:15;18.02;;;11.75;;
9906;SDS011;4992;51.628;6.664;2022-10-31T00:44:41;23.48;;;12.35;;
9906;SDS011;4992;51.628;6.664;2022-10-31T00:47:06;19.60;;;11.90;;
9906;SDS011;4992;51.628;6.664;2022-10-31T00:49:32;22.40;;;12.15;;
9906;SDS011;4992;51.628;6.664;2022-10-31T00:51:57;18.35;;;11.68;;
9906;SDS011;4992;51.628;6.664;2022-10-31T00:54:23;17.08;;;11.15;;
9906;SDS011;4992;51.628;6.664;2022-10-31T00:56:49;19.10;;;11.63;;
9906;SDS011;4992;51.628;6.664;2022-10-31T00:59:14;19.20;;;11.02;;
9906;SDS011;4992;51.628;6.664;2022-10-31T01:01:40;17.25;;;11.23;;
9906;SDS011;4992;51.628;6.664;2022-10-31T01:04:05;15.13;;;9.82;;
9906;SDS011;4992;51.628;6.664;2022-10-31T01:06:31;16.15;;;10.07;;
9906;SDS011;4992;51.628;6.664;2022-10-31T01:08:57;15.75;;;10.07;;
9906;SDS011;4992;51.628;6.664;2022-10-31T01:11:22;15.75;;;9.57;;
9906;SDS011;4992;51.628;6.664;2022-10-31T01:13:52;13.60;;;9.02;;
9906;SDS011;4992;51.628;6.664;2022-10-31T01:16:19;14.73;;;9.25;;
9906;SDS011;4992;51.628;6.664;2022-10-31T01:18:47;17.05;;;10.20;;
9906;SDS011;4992;51.628;6.664;2022-10-31T01:21:15;13.57;;;9.63;;
9906;SDS011;4992;51.628;6.664;2022-10-31T01:23:48;13.18;;;9.50;;
9906;SDS011;4992;51.628;6.664;2022-10-31T01:26:16;15.20;;;9.77;;
9906;SDS011;4992;51.628;6.664;2022-10-31T01:28:49;15.88;;;9.10;;
9906;SDS011;4992;51.628;6.664;2022-10-31T01:31:17;14.88;;;9.25;;
9906;SDS011;4992;51.628;6.664;2022-10-31T01:33:44;13.02;;;9.07;;
9906;SDS011;4992;51.628;6.664;2022-10-31T01:36:12;15.60;;;9.43;;
9906;SDS011;4992;51.628;6.664;2022-10-31T01:38:44;11.30;;;9.00;;
9906;SDS011;4992;51.628;6.664;2022-10-31T01:41:11;15.38;;;9.38;;
9906;SDS011;4992;51.628;6.664;2022-10-31T01:43:42;13.07;;;8.68;;
9906;SDS011;4992;51.628;6.664;2022-10-31T01:46:10;15.38;;;8.75;;
9906;SDS011;4992;51.628;6.664;2022-10-31T01:48:36;15.55;;;9.93;;
9906;SDS011;4992;51.628;6.664;2022-10-31T01:51:02;13.73;;;9.30;;
9906;SDS011;4992;51.628;6.664;2022-10-31T01:53:29;13.48;;;9.95;;
9906;SDS011;4992;51.628;6.664;2022-10-31T01:55:56;18.10;;;10.00;;
9906;SDS011;4992;51.628;6.664;2022-10-31T01:58:24;16.67;;;10.77;;
9906;SDS011;4992;51.628;6.664;2022-10-31T02:00:52;14.05;;;9.93;;
9906;SDS011;4992;51.628;6.664;2022-10-31T02:03:21;15.82;;;10.38;;
9906;SDS011;4992;51.628;6.664;2022-10-31T02:05:47;15.40;;;9.82;;
9906;SDS011;4992;51.628;6.664;2022-10-31T02:08:47;17.42;;;11.45;;
9906;SDS011;4992;51.628;6.664;2022-10-31T02:11:07;15.23;;;10.50;;
9906;SDS011;4992;51.628;6.664;2022-10-31T02:13:34;19.30;;;10.88;;
9906;SDS011;4992;51.628;6.664;2022-10-31T02:15:59;21.48;;;11.93;;
9906;SDS011;4992;51.628;6.664;2022-10-31T02:18:26;23.75;;;12.05;;
9906;SDS011;4992;51.628;6.664;2022-10-31T02:37:13;18.67;;;12.07;;
9906;SDS011;4992;51.628;6.664;2022-10-31T02:39:46;18.73;;;11.13;;
9906;SDS011;4992;51.628;6.664;2022-10-31T02:42:34;17.27;;;9.93;;
9906;SDS011;4992;51.628;6.664;2022-10-31T02:45:13;13.50;;;10.10;;
9906;SDS011;4992;51.628;6.664;2022-10-31T02:47:46;17.98;;;10.25;;
9906;SDS011;4992;51.628;6.664;2022-10-31T02:50:20;14.73;;;9.48;;
9906;SDS011;4992;51.628;6.664;2022-10-31T02:52:50;14.02;;;10.02;;
9906;SDS011;4992;51.628;6.664;2022-10-31T02:57:52;15.68;;;8.88;;
9906;SDS011;4992;51.628;6.664;2022-10-31T03:00:22;14.55;;;8.98;;
9906;SDS011;4992;51.628;6.664;2022-10-31T03:05:55;12.00;;;9.32;;
9906;SDS011;4992;51.628;6.664;2022-10-31T03:08:35;12.68;;;8.50;;
9906;SDS011;4992;51.628;6.664;2022-10-31T03:11:07;15.20;;;9.57;;
9906;SDS011;4992;51.628;6.664;2022-10-31T03:13:48;12.88;;;8.80;;
9906;SDS011;4992;51.628;6.664;2022-10-31T03:16:45;17.48;;;8.75;;
9906;SDS011;4992;51.628;6.664;2022-10-31T03:19:34;14.05;;;9.23;;
9906;SDS011;4992;51.628;6.664;2022-10-31T03:22:10;13.75;;;9.43;;
9906;SDS011;4992;51.628;6.664;2022-10-31T03:24:52;12.18;;;8.43;;
9906;SDS011;4992;51.628;6.664;2022-10-31T03:27:22;17.73;;;8.65;;
9906;SDS011;4992;51.628;6.664;2022-10-31T03:29:50;13.27;;;9.30;;
9906;SDS011;4992;51.628;6.664;2022-10-31T03:32:21;14.30;;;8.40;;
9906;SDS011;4992;51.628;6.664;2022-10-31T03:34:54;10.68;;;7.93;;
9906;SDS011;4992;51.628;6.664;2022-10-31T03:37:24;9.65;;;8.18;;
9906;SDS011;4992;51.628;6.664;2022-10-31T03:39:52;12.45;;;8.60;;
9906;SDS011;4992;51.628;6.664;2022-10-31T03:42:29;15.57;;;8.13;;
9906;SDS011;4992;51.628;6.664;2022-10-31T03:47:30;12.65;;;7.85;;
9906;SDS011;4992;51.628;6.664;2022-10-31T03:49:57;12.23;;;8.82;;
9906;SDS011;4992;51.628;6.664;2022-10-31T03:52:27;14.75;;;8.90;;
9906;SDS011;4992;51.628;6.664;2022-10-31T03:55:05;15.82;;;9.85;;
9906;SDS011;4992;51.628;6.664;2022-10-31T03:57:39;12.57;;;9.77;;
9906;SDS011;4992;51.628;6.664;2022-10-31T04:00:18;16.25;;;10.93;;
9906;SDS011;4992;51.628;6.664;2022-10-31T04:02:46;20.95;;;11.27;;
9906;SDS011;4992;51.628;6.664;2022-10-31T04:05:20;16.60;;;10.95;;
9906;SDS011;4992;51.628;6.664;2022-10-31T04:07:47;16.00;;;11.35;;
9906;SDS011;4992;51.628;6.664;2022-10-31T04:10:16;19.88;;;11.68;;
9906;SDS011;4992;51.628;6.664;2022-10-31T04:12:44;14.38;;;10.02;;
9906;SDS011;4992;51.628;6.664;2022-10-31T04:15:15;15.82;;;11.38;;
9906;SDS011;4992;51.628;6.664;2022-10-31T04:17:41;12.82;;;10.43;;
9906;SDS011;4992;51.628;6.664;2022-10-31T04:20:10;16.88;;;10.82;;
9906;SDS011;4992;51.628;6.664;2022-10-31T04:22:36;13.13;;;9.73;;
9906;SDS011;4992;51.628;6.664;2022-10-31T04:25:01;14.63;;;11.55;;
9906;SDS011;4992;51.628;6.664;2022-10-31T04:27:27;15.80;;;10.57;;
9906;SDS011;4992;51.628;6.664;2022-10-31T04:29:52;14.38;;;10.55;;
9906;SDS011;4992;51.628;6.664;2022-10-31T04:32:18;16.83;;;11.02;;
9906;SDS011;4992;51.628;6.664;2022-10-31T04:34:43;13.48;;;10.68;;
9906;SDS011;4992;51.628;6.664;2022-10-31T04:37:09;14.35;;;10.55;;
9906;SDS011;4992;51.628;6.664;2022-10-31T04:39:34;13.88;;;11.52;;
9906;SDS011;4992;51.628;6.664;2022-10-31T04:42:00;18.33;;;11.68;;
9906;SDS011;4992;51.628;6.664;2022-10-31T04:44:26;21.30;;;12.07;;
9906;SDS011;4992;51.628;6.664;2022-10-31T04:46:51;16.20;;;12.57;;
9906;SDS011;4992;51.628;6.664;2022-10-31T04:49:16;19.10;;;12.18;;
9906;SDS011;4992;51.628;6.664;2022-10-31T04:51:42;19.55;;;11.65;;
9906;SDS011;4992;51.628;6.664;2022-10-31T04:54:08;17.35;;;11.48;;
9906;SDS011;4992;51.628;6.664;2022-10-31T04:56:33;17.65;;;12.15;;
9906;SDS011;4992;51.628;6.664;2022-10-31T04:58:59;18.73;;;11.18;;
9906;SDS011;4992;51.628;6.664;2022-10-31T05:01:24;14.95;;;11.88;;
9906;SDS011;4992;51.628;6.664;2022-10-31T05:03:50;14.77;;;11.70;;
9906;SDS011;4992;51.628;6.664;2022-10-31T05:06:15;14.23;;;11.57;;
9906;SDS011;4992;51.628;6.664;2022-10-31T05:08:41;15.23;;;10.73;;
9906;SDS011;4992;51.628;6.664;2022-10-31T05:11:07;16.52;;;11.05;;
9906;SDS011;4992;51.628;6.664;2022-10-31T05:13:32;12.55;;;10.60;;
9906;SDS011;4992;51.628;6.664;2022-10-31T05:15:58;13.73;;;11.30;;
9906;SDS011;4992;51.628;6.664;2022-10-31T05:18:23;13.07;;;9.55;;
9906;SDS011;4992;51.628;6.664;2022-10-31T05:20:49;17.50;;;10.45;;
9906;SDS011;4992;51.628;6.664;2022-10-31T05:23:14;15.43;;;11.00;;
9906;SDS011;4992;51.628;6.664;2022-10-31T05:25:40;17.43;;;10.83;;
9906;SDS011;4992;51.628;6.664;2022-10-31T05:28:06;14.83;;;10.53;;
9906;SDS011;4992;51.628;6.664;2022-10-31T05:30:32;18.50;;;11.40;;
9906;SDS011;4992;51.628;6.664;2022-10-31T05:32:58;19.45;;;11.43;;
9906;SDS011;4992;51.628;6.664;2022-10-31T05:35:26;15.30;;;10.60;;
9906;SDS011;4992;51.628;6.664;2022-10-31T05:37:54;15.63;;;10.27;;
9906;SDS011;4992;51.628;6.664;2022-10-31T05:40:22;16.57;;;11.40;;
9906;SDS011;4992;51.628;6.664;2022-10-31T05:42:50;17.40;;;12.38;;
9906;SDS011;4992;51.628;6.664;2022-10-31T05:45:17;13.67;;;10.57;;
9906;SDS011;4992;51.628;6.664;2022-10-31T05:47:50;12.23;;;10.20;;
9906;SDS011;4992;51.628;6.664;2022-10-31T05:50:26;13.87;;;10.07;;
9906;SDS011;4992;51.628;6.664;2022-10-31T05:52:57;13.67;;;10.70;;
9906;SDS011;4992;51.628;6.664;2022-10-31T05:55:24;16.40;;;10.77;;
9906;SDS011;4992;51.628;6.664;2022-10-31T05:57:50;13.10;;;10.40;;
9906;SDS011;4992;51.628;6.664;2022-10-31T06:00:17;12.40;;;10.53;;
9906;SDS011;4992;51.628;6.664;2022-10-31T06:02:43;15.53;;;10.57;;
9906;SDS011;4992;51.628;6.664;2022-10-31T06:05:08;12.90;;;10.27;;
9906;SDS011;4992;51.628;6.664;2022-10-31T06:07:34;13.17;;;9.87;;
9906;SDS011;4992;51.628;6.664;2022-10-31T06:10:00;12.83;;;10.37;;
9906;SDS011;4992;51.628;6.664;2022-10-31T06:12:27;15.43;;;10.63;;
9906;SDS011;4992;51.628;6.664;2022-10-31T06:14:52;12.70;;;10.07;;
9906;SDS011;4992;51.628;6.664;2022-10-31T06:17:18;19.77;;;10.57;;
9906;SDS011;4992;51.628;6.664;2022-10-31T06:19:43;14.10;;;10.63;;
9906;SDS011;4992;51.628;6.664;2022-10-31T06:22:09;13.67;;;9.90;;
9906;SDS011;4992;51.628;6.664;2022-10-31T06:24:36;19.87;;;10.20;;
9906;SDS011;4992;51.628;6.664;2022-10-31T06:27:02;12.80;;;10.47;;
9906;SDS011;4992;51.628;6.664;2022-10-31T06:29:29;12.70;;;9.93;;
9906;SDS011;4992;51.628;6.664;2022-10-31T06:31:55;14.30;;;10.43;;
9906;SDS011;4992;51.628;6.664;2022-10-31T06:34:20;13.87;;;9.87;;
9906;SDS011;4992;51.628;6.664;2022-10-31T06:36:46;15.27;;;10.93;;
9906;SDS011;4992;51.628;6.664;2022-10-31T06:39:12;14.13;;;10.80;;
9906;SDS011;4992;51.628;6.664;2022-10-31T06:41:38;13.53;;;9.77;;
9906;SDS011;4992;51.628;6.664;2022-10-31T06:44:04;11.20;;;9.33;;
9906;SDS011;4992;51.628;6.664;2022-10-31T06:46:31;15.00;;;10.37;;
9906;SDS011;4992;51.628;6.664;2022-10-31T06:48:56;15.30;;;10.43;;
9906;SDS011;4992;51.628;6.664;2022-10-31T06:51:22;13.80;;;10.00;;
9906;SDS011;4992;51.628;6.664;2022-10-31T06:53:47;14.37;;;9.93;;
9906;SDS011;4992;51.628;6.664;2022-10-31T06:56:13;13.80;;;10.10;;
9906;SDS011;4992;51.628;6.664;2022-10-31T06:58:38;15.57;;;9.93;;
9906;SDS011;4992;51.628;6.664;2022-10-31T07:01:04;13.80;;;9.93;;
9906;SDS011;4992;51.628;6.664;2022-10-31T07:03:29;18.27;;;11.87;;
9906;SDS011;4992;51.628;6.664;2022-10-31T07:05:56;18.20;;;10.40;;
9906;SDS011;4992;51.628;6.664;2022-10-31T07:08:21;17.00;;;9.70;;
9906;SDS011;4992;51.628;6.664;2022-10-31T07:10:55;16.67;;;10.33;;
9906;SDS011;4992;51.628;6.664;2022-10-31T07:13:23;16.00;;;9.40;;
9906;SDS011;4992;51.628;6.664;2022-10-31T07:15:52;13.97;;;9.57;;
9906;SDS011;4992;51.628;6.664;2022-10-31T07:18:20;12.93;;;10.03;;
9906;SDS011;4992;51.628;6.664;2022-10-31T07:20:47;18.00;;;10.73;;
9906;SDS011;4992;51.628;6.664;2022-10-31T07:23:13;17.43;;;11.13;;
9906;SDS011;4992;51.628;6.664;2022-10-31T07:25:39;15.63;;;11.20;;
9906;SDS011;4992;51.628;6.664;2022-10-31T07:28:04;18.43;;;10.73;;
9906;SDS011;4992;51.628;6.664;2022-10-31T07:30:30;22.05;;;10.40;;
9906;SDS011;4992;51.628;6.664;2022-10-31T07:32:56;21.47;;;9.93;;
9906;SDS011;4992;51.628;6.664;2022-10-31T07:35:23;22.17;;;10.57;;
9906;SDS011;4992;51.628;6.664;2022-10-31T07:37:51;16.47;;;9.97;;
9906;SDS011;4992;51.628;6.664;2022-10-31T07:40:17;15.90;;;10.03;;
9906;SDS011;4992;51.628;6.664;2022-10-31T07:42:45;20.08;;;10.35;;
9906;SDS011;4992;51.628;6.664;2022-10-31T07:45:12;21.47;;;11.83;;
9906;SDS011;4992;51.628;6.664;2022-10-31T07:50:05;25.40;;;12.50;;
9906;SDS011;4992;51.628;6.664;2022-10-31T07:52:32;24.73;;;11.93;;
9906;SDS011;4992;51.628;6.664;2022-10-31T07:54:57;20.65;;;12.85;;
9906;SDS011;4992;51.628;6.664;2022-10-31T07:57:23;24.50;;;12.85;;
9906;SDS011;4992;51.628;6.664;2022-10-31T07:59:48;21.52;;;12.57;;
9906;SDS011;4992;51.628;6.664;2022-10-31T08:02:14;20.55;;;12.20;;
9906;SDS011;4992;51.628;6.664;2022-10-31T08:04:40;19.95;;;12.93;;
9906;SDS011;4992;51.628;6.664;2022-10-31T08:07:05;17.42;;;12.40;;
9906;SDS011;4992;51.628;6.664;2022-10-31T08:09:31;24.17;;;12.15;;
9906;SDS011;4992;51.628;6.664;2022-10-31T08:11:56;23.38;;;14.18;;
9906;SDS011;4992;51.628;6.664;2022-10-31T08:14:22;24.17;;;13.27;;
9906;SDS011;4992;51.628;6.664;2022-10-31T08:16:47;22.75;;;12.98;;
9906;SDS011;4992;51.628;6.664;2022-10-31T08:19:13;22.38;;;13.15;;
9906;SDS011;4992;51.628;6.664;2022-10-31T08:21:38;23.25;;;15.70;;
9906;SDS011;4992;51.628;6.664;2022-10-31T08:24:04;23.40;;;14.18;;
9906;SDS011;4992;51.628;6.664;2022-10-31T08:26:30;24.90;;;12.82;;
9906;SDS011;4992;51.628;6.664;2022-10-31T08:28:56;19.70;;;13.63;;
9906;SDS011;4992;51.628;6.664;2022-10-31T08:31:21;25.42;;;15.60;;
9906;SDS011;4992;51.628;6.664;2022-10-31T08:33:47;22.30;;;14.20;;
9906;SDS011;4992;51.628;6.664;2022-10-31T08:36:13;20.58;;;15.10;;
9906;SDS011;4992;51.628;6.664;2022-10-31T08:38:39;28.00;;;15.48;;
9906;SDS011;4992;51.628;6.664;2022-10-31T08:41:04;23.83;;;14.75;;
9906;SDS011;4992;51.628;6.664;2022-10-31T08:43:30;24.52;;;15.85;;
9906;SDS011;4992;51.628;6.664;2022-10-31T08:45:56;26.08;;;15.07;;
9906;SDS011;4992;51.628;6.664;2022-10-31T08:48:21;26.92;;;15.07;;
9906;SDS011;4992;51.628;6.664;2022-10-31T08:50:47;24.70;;;16.00;;
9906;SDS011;4992;51.628;6.664;2022-10-31T08:53:17;22.38;;;15.35;;
9906;SDS011;4992;51.628;6.664;2022-10-31T08:55:44;26.02;;;15.25;;
9906;SDS011;4992;51.628;6.664;2022-10-31T08:58:15;21.52;;;15.55;;
9906;SDS011;4992;51.628;6.664;2022-10-31T09:00:42;22.60;;;15.55;;
9906;SDS011;4992;51.628;6.664;2022-10-31T09:03:10;30.58;;;17.20;;
9906;SDS011;4992;51.628;6.664;2022-10-31T09:05:37;26.80;;;17.02;;
9906;SDS011;4992;51.628;6.664;2022-10-31T09:08:04;25.67;;;16.50;;
9906;SDS011;4992;51.628;6.664;2022-10-31T09:10:31;24.55;;;15.55;;
9906;SDS011;4992;51.628;6.664;2022-10-31T09:12:59;23.42;;;15.95;;
9906;SDS011;4992;51.628;6.664;2022-10-31T09:15:26;26.85;;;17.95;;
9906;SDS011;4992;51.628;6.664;2022-10-31T09:17:53;26.73;;;18.13;;
9906;SDS011;4992;51.628;6.664;2022-10-31T09:20:19;29.48;;;19.23;;
9906;SDS011;4992;51.628;6.664;2022-10-31T09:22:45;29.40;;;19.33;;
9906;SDS011;4992;51.628;6.664;2022-10-31T09:25:11;27.20;;;18.17;;
9906;SDS011;4992;51.628;6.664;2022-10-31T09:27:36;26.95;;;17.95;;
9906;SDS011;4992;51.628;6.664;2022-10-31T09:30:02;33.72;;;18.52;;
9906;SDS011;4992;51.628;6.664;2022-10-31T09:32:29;27.85;;;19.45;;
9906;SDS011;4992;51.628;6.664;2022-10-31T09:34:54;27.58;;;18.77;;
9906;SDS011;4992;51.628;6.664;2022-10-31T09:37:20;29.90;;;18.35;;
9906;SDS011;4992;51.628;6.664;2022-10-31T09:39:46;25.55;;;17.52;;
9906;SDS011;4992;51.628;6.664;2022-10-31T09:47:49;26.45;;;17.63;;
9906;SDS011;4992;51.628;6.664;2022-10-31T09:50:25;23.25;;;16.73;;
9906;SDS011;4992;51.628;6.664;2022-10-31T09:53:30;24.80;;;17.35;;
9906;SDS011;4992;51.628;6.664;2022-10-31T09:56:15;27.88;;;17.75;;
9906;SDS011;4992;51.628;6.664;2022-10-31T09:58:44;26.55;;;16.90;;
9906;SDS011;4992;51.628;6.664;2022-10-31T10:01:23;26.67;;;17.77;;
9906;SDS011;4992;51.628;6.664;2022-10-31T10:04:15;24.48;;;17.77;;
9906;SDS011;4992;51.628;6.664;2022-10-31T10:06:44;24.45;;;17.60;;
9906;SDS011;4992;51.628;6.664;2022-10-31T10:09:12;22.98;;;18.20;;
9906;SDS011;4992;51.628;6.664;2022-10-31T10:12:01;26.75;;;18.58;;
9906;SDS011;4992;51.628;6.664;2022-10-31T10:14:52;24.60;;;17.02;;
9906;SDS011;4992;51.628;6.664;2022-10-31T10:17:35;23.45;;;16.30;;
9906;SDS011;4992;51.628;6.664;2022-10-31T10:20:20;20.20;;;15.38;;
9906;SDS011;4992;51.628;6.664;2022-10-31T10:23:19;18.23;;;16.27;;
9906;SDS011;4992;51.628;6.664;2022-10-31T10:26:21;26.75;;;17.10;;
9906;SDS011;4992;51.628;6.664;2022-10-31T10:28:49;19.92;;;16.05;;
9906;SDS011;4992;51.628;6.664;2022-10-31T10:31:27;21.45;;;16.38;;
9906;SDS011;4992;51.628;6.664;2022-10-31T10:34:08;22.73;;;15.38;;
9906;SDS011;4992;51.628;6.664;2022-10-31T10:36:51;20.10;;;15.45;;
9906;SDS011;4992;51.628;6.664;2022-10-31T10:39:23;21.73;;;15.10;;
9906;SDS011;4992;51.628;6.664;2022-10-31T10:41:55;24.13;;;15.63;;
9906;SDS011;4992;51.628;6.664;2022-10-31T10:44:45;23.30;;;16.27;;
9906;SDS011;4992;51.628;6.664;2022-10-31T10:47:41;22.88;;;16.42;;
9906;SDS011;4992;51.628;6.664;2022-10-31T10:52:50;25.77;;;16.15;;
9906;SDS011;4992;51.628;6.664;2022-10-31T10:58:11;23.52;;;16.95;;
9906;SDS011;4992;51.628;6.664;2022-10-31T11:00:44;24.33;;;16.33;;
9906;SDS011;4992;51.628;6.664;2022-10-31T11:03:14;28.30;;;17.35;;
9906;SDS011;4992;51.628;6.664;2022-10-31T11:08:49;26.70;;;16.95;;
9906;SDS011;4992;51.628;6.664;2022-10-31T11:13:50;24.88;;;16.70;;
9906;SDS011;4992;51.628;6.664;2022-10-31T11:16:27;28.45;;;16.65;;
9906;SDS011;4992;51.628;6.664;2022-10-31T11:21:45;24.35;;;16.40;;
9906;SDS011;4992;51.628;6.664;2022-10-31T11:24:16;26.60;;;17.15;;
9906;SDS011;4992;51.628;6.664;2022-10-31T11:26:44;30.38;;;15.98;;
9906;SDS011;4992;51.628;6.664;2022-10-31T11:29:16;23.77;;;16.48;;
9906;SDS011;4992;51.628;6.664;2022-10-31T11:31:46;23.80;;;16.00;;
9906;SDS011;4992;51.628;6.664;2022-10-31T11:34:15;26.92;;;17.60;;
9906;SDS011;4992;51.628;6.664;2022-10-31T11:37:03;21.40;;;17.15;;
9906;SDS011;4992;51.628;6.664;2022-10-31T11:39:43;31.58;;;16.48;;
9906;SDS011;4992;51.628;6.664;2022-10-31T11:42:10;24.95;;;16.55;;
9906;SDS011;4992;51.628;6.664;2022-10-31T11:44:36;24.52;;;17.80;;
9906;SDS011;4992;51.628;6.664;2022-10-31T11:47:12;28.60;;;17.63;;
9906;SDS011;4992;51.628;6.664;2022-10-31T11:49:41;24.70;;;16.98;;
9906;SDS011;4992;51.628;6.664;2022-10-31T11:52:12;24.05;;;18.08;;
9906;SDS011;4992;51.628;6.664;2022-10-31T11:54:53;28.67;;;17.23;;
9906;SDS011;4992;51.628;6.664;2022-10-31T11:57:43;27.05;;;16.80;;
9906;SDS011;4992;51.628;6.664;2022-10-31T12:00:24;26.70;;;16.75;;
9906;SDS011;4992;51.628;6.664;2022-10-31T12:05:49;26.13;;;18.25;;
9906;SDS011;4992;51.628;6.664;2022-10-31T12:08:23;28.15;;;18.33;;
9906;SDS011;4992;51.628;6.664;2022-10-31T12:13:30;29.58;;;17.00;;
9906;SDS011;4992;51.628;6.664;2022-10-31T12:16:15;23.63;;;17.50;;
9906;SDS011;4992;51.628;6.664;2022-10-31T12:18:57;27.58;;;18.30;;
9906;SDS011;4992;51.628;6.664;2022-10-31T12:45:55;26.05;;;18.00;;
9906;SDS011;4992;51.628;6.664;2022-10-31T12:51:17;27.17;;;18.10;;
9906;SDS011;4992;51.628;6.664;2022-10-31T12:59:38;28.40;;;18.27;;
9906;SDS011;4992;51.628;6.664;2022-10-31T13:05:14;28.02;;;17.52;;
9906;SDS011;4992;51.628;6.664;2022-10-31T13:13:27;21.02;;;15.68;;
9906;SDS011;4992;51.628;6.664;2022-10-31T13:16:02;24.70;;;16.08;;
9906;SDS011;4992;51.628;6.664;2022-10-31T13:18:42;26.88;;;15.30;;
9906;SDS011;4992;51.628;6.664;2022-10-31T13:21:18;19.42;;;14.90;;
9906;SDS011;4992;51.628;6.664;2022-10-31T13:23:51;26.42;;;15.25;;
9906;SDS011;4992;51.628;6.664;2022-10-31T13:26:38;26.85;;;13.57;;
9906;SDS011;4992;51.628;6.664;2022-10-31T13:31:43;23.80;;;13.32;;
9906;SDS011;4992;51.628;6.664;2022-10-31T13:34:15;20.25;;;12.10;;
9906;SDS011;4992;51.628;6.664;2022-10-31T13:40:12;18.52;;;12.10;;
9906;SDS011;4992;51.628;6.664;2022-10-31T13:46:25;20.98;;;12.45;;
9906;SDS011;4992;51.628;6.664;2022-10-31T13:49:00;19.77;;;12.95;;
9906;SDS011;4992;51.628;6.664;2022-10-31T13:51:29;22.42;;;12.70;;
9906;SDS011;4992;51.628;6.664;2022-10-31T13:54:19;25.17;;;13.65;;
9906;SDS011;4992;51.628;6.664;2022-10-31T13:56:58;19.58;;;12.93;;
9906;SDS011;4992;51.628;6.664;2022-10-31T13:59:28;18.50;;;11.55;;
9906;SDS011;4992;51.628;6.664;2022-10-31T14:02:12;22.27;;;11.95;;
9906;SDS011;4992;51.628;6.664;2022-10-31T14:04:50;20.10;;;10.80;;
9906;SDS011;4992;51.628;6.664;2022-10-31T14:07:21;15.82;;;10.30;;
9906;SDS011;4992;51.628;6.664;2022-10-31T14:09:56;18.02;;;10.27;;
9906;SDS011;4992;51.628;6.664;2022-10-31T14:12:44;19.17;;;10.93;;
9906;SDS011;4992;51.628;6.664;2022-10-31T14:15:24;17.67;;;11.30;;
9906;SDS011;4992;51.628;6.664;2022-10-31T14:17:52;18.63;;;10.93;;
9906;SDS011;4992;51.628;6.664;2022-10-31T14:20:22;20.15;;;11.80;;
9906;SDS011;4992;51.628;6.664;2022-10-31T14:25:53;22.33;;;11.27;;
9906;SDS011;4992;51.628;6.664;2022-10-31T14:28:31;26.85;;;11.65;;
9906;SDS011;4992;51.628;6.664;2022-10-31T14:30:59;19.95;;;15.27;;
9906;SDS011;4992;51.628;6.664;2022-10-31T14:33:25;20.35;;;12.48;;
9906;SDS011;4992;51.628;6.664;2022-10-31T14:36:15;16.20;;;12.23;;
9906;SDS011;4992;51.628;6.664;2022-10-31T14:39:04;18.50;;;11.98;;
9906;SDS011;4992;51.628;6.664;2022-10-31T14:47:21;21.23;;;12.48;;
9906;SDS011;4992;51.628;6.664;2022-10-31T14:52:43;18.02;;;12.07;;
9906;SDS011;4992;51.628;6.664;2022-10-31T14:55:13;20.05;;;12.40;;
9906;SDS011;4992;51.628;6.664;2022-10-31T14:57:47;21.20;;;12.63;;
9906;SDS011;4992;51.628;6.664;2022-10-31T15:00:18;23.70;;;11.40;;
9906;SDS011;4992;51.628;6.664;2022-10-31T15:05:41;24.67;;;12.10;;
9906;SDS011;4992;51.628;6.664;2022-10-31T15:11:08;20.50;;;11.70;;
9906;SDS011;4992;51.628;6.664;2022-10-31T15:13:41;18.13;;;11.05;;
9906;SDS011;4992;51.628;6.664;2022-10-31T15:16:18;20.15;;;11.90;;
9906;SDS011;4992;51.628;6.664;2022-10-31T15:18:56;18.67;;;11.27;;
9906;SDS011;4992;51.628;6.664;2022-10-31T15:21:29;18.13;;;11.30;;
9906;SDS011;4992;51.628;6.664;2022-10-31T15:23:56;22.60;;;12.30;;
9906;SDS011;4992;51.628;6.664;2022-10-31T15:26:26;20.02;;;11.32;;
9906;SDS011;4992;51.628;6.664;2022-10-31T15:28:59;18.08;;;10.90;;
9906;SDS011;4992;51.628;6.664;2022-10-31T15:31:27;17.17;;;11.60;;
9906;SDS011;4992;51.628;6.664;2022-10-31T15:33:53;21.80;;;11.57;;
9906;SDS011;4992;51.628;6.664;2022-10-31T15:36:20;20.08;;;11.52;;
9906;SDS011;4992;51.628;6.664;2022-10-31T15:38:48;20.70;;;11.60;;
9906;SDS011;4992;51.628;6.664;2022-10-31T15:43:55;20.05;;;12.43;;
9906;SDS011;4992;51.628;6.664;2022-10-31T15:46:25;17.27;;;12.13;;
9906;SDS011;4992;51.628;6.664;2022-10-31T15:48:52;24.42;;;11.90;;
9906;SDS011;4992;51.628;6.664;2022-10-31T15:51:17;21.67;;;11.93;;
9906;SDS011;4992;51.628;6.664;2022-10-31T15:53:51;17.92;;;12.32;;
9906;SDS011;4992;51.628;6.664;2022-10-31T15:56:20;20.27;;;11.68;;
9906;SDS011;4992;51.628;6.664;2022-10-31T15:58:49;21.63;;;11.77;;
9906;SDS011;4992;51.628;6.664;2022-10-31T16:01:21;20.38;;;11.52;;
9906;SDS011;4992;51.628;6.664;2022-10-31T16:06:55;16.92;;;12.10;;
9906;SDS011;4992;51.628;6.664;2022-10-31T16:09:48;18.23;;;11.15;;
9906;SDS011;4992;51.628;6.664;2022-10-31T16:12:15;22.42;;;12.85;;
9906;SDS011;4992;51.628;6.664;2022-10-31T16:14:41;22.40;;;11.25;;
9906;SDS011;4992;51.628;6.664;2022-10-31T16:17:10;17.42;;;11.55;;
9906;SDS011;4992;51.628;6.664;2022-10-31T16:19:37;16.95;;;11.85;;
9906;SDS011;4992;51.628;6.664;2022-10-31T16:22:13;23.40;;;12.88;;
9906;SDS011;4992;51.628;6.664;2022-10-31T16:25:02;22.48;;;13.18;;
9906;SDS011;4992;51.628;6.664;2022-10-31T16:27:36;20.25;;;12.65;;
9906;SDS011;4992;51.628;6.664;2022-10-31T16:30:24;18.23;;;12.20;;
9906;SDS011;4992;51.628;6.664;2022-10-31T16:33:02;23.80;;;12.93;;
9906;SDS011;4992;51.628;6.664;2022-10-31T16:35:35;17.67;;;13.23;;
9906;SDS011;4992;51.628;6.664;2022-10-31T16:38:02;22.33;;;11.60;;
9906;SDS011;4992;51.628;6.664;2022-10-31T16:40:28;17.13;;;10.85;;
9906;SDS011;4992;51.628;6.664;2022-10-31T16:42:56;17.77;;;10.95;;
9906;SDS011;4992;51.628;6.664;2022-10-31T16:45:24;21.23;;;11.00;;
9906;SDS011;4992;51.628;6.664;2022-10-31T16:47:51;20.23;;;10.82;;
9906;SDS011;4992;51.628;6.664;2022-10-31T16:50:19;19.00;;;10.95;;
9906;SDS011;4992;51.628;6.664;2022-10-31T16:52:49;19.48;;;11.43;;
9906;SDS011;4992;51.628;6.664;2022-10-31T16:55:16;17.38;;;11.32;;
9906;SDS011;4992;51.628;6.664;2022-10-31T16:57:45;19.50;;;10.48;;
9906;SDS011;4992;51.628;6.664;2022-10-31T17:00:15;17.27;;;9.77;;
9906;SDS011;4992;51.628;6.664;2022-10-31T17:02:48;15.35;;;11.50;;
9906;SDS011;4992;51.628;6.664;2022-10-31T17:05:16;23.17;;;12.88;;
9906;SDS011;4992;51.628;6.664;2022-10-31T17:07:43;20.50;;;13.38;;
9906;SDS011;4992;51.628;6.664;2022-10-31T17:10:10;23.95;;;13.45;;
9906;SDS011;4992;51.628;6.664;2022-10-31T17:12:37;19.42;;;12.63;;
9906;SDS011;4992;51.628;6.664;2022-10-31T17:15:08;20.20;;;11.73;;